createdAt,value
2019-05-10T00:02:46.192Z,1.47
2019-05-10T00:08:07.252Z,1.07
2019-05-10T00:13:12.352Z,0.63
2019-05-10T00:18:15.712Z,1.50
2019-05-10T00:23:19.054Z,1.57
2019-05-10T00:28:22.378Z,1.37
2019-05-10T00:33:25.733Z,0.80
2019-05-10T00:38:29.101Z,1.00
2019-05-10T00:43:32.473Z,1.53
2019-05-10T00:48:35.952Z,2.53
2019-05-10T00:53:39.296Z,1.10
2019-05-10T00:58:42.635Z,1.53
2019-05-10T01:03:46.022Z,2.27
2019-05-10T01:08:49.488Z,0.90
2019-05-10T01:13:52.835Z,1.10
2019-05-10T01:18:56.184Z,1.17
2019-05-10T01:23:59.528Z,2.10
2019-05-10T01:29:02.907Z,2.17
2019-05-10T01:34:06.248Z,6.60
2019-05-10T01:39:09.597Z,2.20
2019-05-10T01:44:12.935Z,1.80
2019-05-10T01:49:16.372Z,1.63
2019-05-10T01:54:19.708Z,2.03
2019-05-10T01:59:23.066Z,3.67
2019-05-10T02:04:26.437Z,0.70
2019-05-10T02:09:33.092Z,1.43
2019-05-10T02:14:34.862Z,1.20
2019-05-10T02:19:38.208Z,1.73
2019-05-10T02:24:41.572Z,1.93
2019-05-10T02:29:44.989Z,2.50
2019-05-10T02:34:48.322Z,3.03
2019-05-10T02:39:51.981Z,1.53
2019-05-10T02:44:55.280Z,0.90
2019-05-10T02:49:59.406Z,1.03
2019-05-10T02:55:03.293Z,0.40
2019-05-10T03:00:07.512Z,2.20
2019-05-10T03:05:10.941Z,1.03
2019-05-10T03:10:14.458Z,0.97
2019-05-10T03:15:17.984Z,1.57
2019-05-10T03:20:22.686Z,1.60
2019-05-10T03:25:26.130Z,1.60
2019-05-10T03:30:30.832Z,2.10
2019-05-10T03:35:34.389Z,1.40
2019-05-10T03:40:37.805Z,3.53
2019-05-10T03:45:41.195Z,1.27
2019-05-10T03:50:45.266Z,1.13
2019-05-10T03:55:48.609Z,2.53
2019-05-10T04:00:51.974Z,0.90
2019-05-10T04:05:55.529Z,1.30
2019-05-10T04:10:58.946Z,1.77
2019-05-10T04:16:02.491Z,1.27
2019-05-10T04:21:05.825Z,1.20
2019-05-10T04:26:09.170Z,2.20
2019-05-10T04:31:12.509Z,1.77
2019-05-10T04:36:15.894Z,0.83
2019-05-10T04:41:19.230Z,2.17
2019-05-10T04:46:22.626Z,1.50
2019-05-10T04:51:26.055Z,3.63
2019-05-10T04:56:29.485Z,2.80
2019-05-10T05:01:32.865Z,5.10
2019-05-10T05:06:36.196Z,1.97
2019-05-10T05:11:39.599Z,2.60
2019-05-10T05:16:42.947Z,1.37
2019-05-10T05:21:46.384Z,1.10
2019-05-10T05:26:49.722Z,2.20
2019-05-10T05:31:54.064Z,2.63
2019-05-10T05:36:58.518Z,3.73
2019-05-10T05:42:01.899Z,2.17
2019-05-10T05:47:05.259Z,7.37
2019-05-10T05:52:08.695Z,2.63
2019-05-10T05:57:12.065Z,6.03
2019-05-10T06:02:15.399Z,3.40
2019-05-10T06:07:18.854Z,4.23
2019-05-10T06:12:22.207Z,2.90
2019-05-10T06:17:29.362Z,2.93
2019-05-10T06:22:30.806Z,2.70
2019-05-10T06:27:35.315Z,4.03
2019-05-10T06:32:39.470Z,1.87
2019-05-10T06:37:42.918Z,3.37
2019-05-10T06:42:46.340Z,2.50
2019-05-10T06:53:10.507Z,2.70
2019-05-10T06:58:11.987Z,3.30
2019-05-10T07:03:15.257Z,2.00
2019-05-10T07:08:20.493Z,2.47
2019-05-10T07:13:23.604Z,1.93
2019-05-10T07:18:26.964Z,2.53
2019-05-10T07:23:30.400Z,2.20
2019-05-10T07:28:33.629Z,3.03
2019-05-10T07:33:40.012Z,1.80
2019-05-10T07:38:42.251Z,1.30
2019-05-10T07:43:48.018Z,1.47
2019-05-10T07:48:53.359Z,2.57
2019-05-10T07:53:56.905Z,4.03
2019-05-10T07:59:00.883Z,3.63
2019-05-10T08:04:04.214Z,3.27
2019-05-10T08:09:09.629Z,1.93
2019-05-10T08:14:13.181Z,2.20
2019-05-10T08:19:16.477Z,1.47
2019-05-10T08:24:22.045Z,6.50
2019-05-10T08:29:24.793Z,0.37
2019-05-10T08:34:28.970Z,1.40
2019-05-10T08:39:43.937Z,1.90
2019-05-10T08:44:38.132Z,4.03
2019-05-10T08:49:55.331Z,4.10
2019-05-10T08:54:46.843Z,2.20
2019-05-10T08:59:54.245Z,2.90
2019-05-10T09:04:55.162Z,2.73
2019-05-10T09:09:58.455Z,3.00
2019-05-10T09:15:06.330Z,2.37
2019-05-10T09:20:14.044Z,0.43
2019-05-10T09:25:13.935Z,0.50
2019-05-10T09:30:21.992Z,2.30
2019-05-10T09:35:25.298Z,3.00
2019-05-10T09:40:28.664Z,1.70
2019-05-10T09:45:32.590Z,1.45
2019-05-10T09:50:42.078Z,6.03
2019-05-10T09:55:45.698Z,3.47
2019-05-10T10:00:48.341Z,1.30
2019-05-10T10:05:55.350Z,0.93
2019-05-10T10:11:01.278Z,0.60
2019-05-10T10:16:04.017Z,1.93
2019-05-10T10:21:06.126Z,3.53
2019-05-10T10:26:12.757Z,0.93
2019-05-10T10:31:26.229Z,3.33
2019-05-10T10:36:19.495Z,2.37
2019-05-10T10:41:31.190Z,3.07
2019-05-10T10:46:28.150Z,3.13
2019-05-10T10:51:34.063Z,2.80
2019-05-10T10:56:37.406Z,2.57
2019-05-10T11:01:49.433Z,1.63
2019-05-10T11:06:45.946Z,0.73
2019-05-10T11:11:51.569Z,1.07
2019-05-10T11:16:57.051Z,0.70
2019-05-10T11:22:04.386Z,0.80
2019-05-10T11:27:07.306Z,0.90
2019-05-10T11:32:15.791Z,2.53
2019-05-10T11:37:15.982Z,1.10
2019-05-10T11:42:21.195Z,0.70
2019-05-10T11:47:27.029Z,1.00
2019-05-10T11:52:34.879Z,2.23
2019-05-10T11:57:34.460Z,2.67
2019-05-10T12:02:45.901Z,1.33
2019-05-10T12:07:46.023Z,0.90
2019-05-10T12:13:01.654Z,0.83
2019-05-10T12:17:58.980Z,1.77
2019-05-10T12:22:57.857Z,1.43
2019-05-10T12:28:01.357Z,1.23
2019-05-10T12:33:09.238Z,0.57
2019-05-10T12:38:11.296Z,1.03
2019-05-10T12:43:14.628Z,1.37
2019-05-10T12:48:17.904Z,3.00
2019-05-10T12:53:21.543Z,2.70
2019-05-10T12:58:24.901Z,0.70
2019-05-10T13:03:31.760Z,0.50
2019-05-10T13:08:33.222Z,0.10
2019-05-10T13:13:36.525Z,1.73
2019-05-10T13:18:50.844Z,0.80
2019-05-10T13:23:44.905Z,1.63
2019-05-10T13:28:48.237Z,0.93
2019-05-10T13:33:51.603Z,1.07
2019-05-10T13:38:54.887Z,1.10
2019-05-10T13:44:04.935Z,0.53
2019-05-10T13:49:03.220Z,0.70
2019-05-10T13:54:06.527Z,1.50
2019-05-10T13:59:18.017Z,2.30
2019-05-10T14:04:14.865Z,1.70
2019-05-10T14:09:20.964Z,1.17
2019-05-10T14:14:26.640Z,1.27
2019-05-10T14:19:28.286Z,3.73
2019-05-10T14:24:31.592Z,1.67
2019-05-10T14:29:36.867Z,4.67
2019-05-10T14:34:44.081Z,2.57
2019-05-10T14:39:44.933Z,2.97
2019-05-10T14:44:48.233Z,0.70
2019-05-10T14:49:51.529Z,0.97
2019-05-10T14:54:56.741Z,1.30
2019-05-10T14:59:59.837Z,0.80
2019-05-10T15:05:08.690Z,2.10
2019-05-10T15:10:08.943Z,0.83
2019-05-10T15:15:12.249Z,0.70
2019-05-10T15:20:15.612Z,1.00
2019-05-10T15:25:18.919Z,0.70
2019-05-10T15:30:22.382Z,0.70
2019-05-10T15:35:25.687Z,1.17
2019-05-10T15:40:28.971Z,2.47
2019-05-10T15:45:32.281Z,0.80
2019-05-10T15:50:38.563Z,0.90
2019-05-10T15:55:40.602Z,1.03
2019-05-10T16:00:43.898Z,1.53
2019-05-10T16:05:59.846Z,1.90
2019-05-10T16:10:52.234Z,1.00
2019-05-10T16:15:57.834Z,0.87
2019-05-10T16:21:00.565Z,3.03
2019-05-10T16:26:03.870Z,2.97
2019-05-10T16:31:07.178Z,4.70
2019-05-10T16:36:10.544Z,1.30
2019-05-10T16:41:13.854Z,4.50
2019-05-10T16:46:17.178Z,0.70
2019-05-10T16:51:20.459Z,0.73
2019-05-10T16:56:23.758Z,0.67
2019-05-10T17:01:27.772Z,1.53
2019-05-10T17:06:35.450Z,0.60
2019-05-10T17:11:36.361Z,0.57
2019-05-10T17:16:39.648Z,1.67
2019-05-10T17:21:42.966Z,2.40
2019-05-10T17:26:46.271Z,0.60
2019-05-10T17:31:49.578Z,0.80
2019-05-10T17:36:57.926Z,1.87
2019-05-10T17:42:02.970Z,1.90
2019-05-10T17:47:02.987Z,1.83
2019-05-10T17:52:06.296Z,3.70
2019-05-10T17:57:10.645Z,2.47
2019-05-10T18:02:14.625Z,2.27
2019-05-10T18:07:18.013Z,3.03
2019-05-10T18:12:26.575Z,1.87
2019-05-10T18:17:27.627Z,1.50
2019-05-10T18:22:42.250Z,2.03
2019-05-10T18:27:36.036Z,2.63
2019-05-10T18:32:39.304Z,1.43
2019-05-10T18:37:42.737Z,1.97
2019-05-10T18:42:46.049Z,2.20
2019-05-10T18:47:49.363Z,7.43
2019-05-10T18:52:52.692Z,9.83
2019-05-10T18:57:55.995Z,6.83
2019-05-10T19:02:59.288Z,5.23
2019-05-10T19:08:05.633Z,3.03
2019-05-10T19:13:08.073Z,2.20
2019-05-10T19:18:11.529Z,2.03
2019-05-10T19:23:19.528Z,2.03
2019-05-10T19:28:21.068Z,2.30
2019-05-10T19:33:29.775Z,2.63
2019-05-10T19:38:29.937Z,1.70
2019-05-10T19:43:33.234Z,1.53
2019-05-10T19:48:37.019Z,2.20
2019-05-10T19:53:42.545Z,3.17
2019-05-10T19:58:48.911Z,2.20
2019-05-10T20:03:50.427Z,6.23
2019-05-10T20:08:53.743Z,9.23
2019-05-10T20:13:57.050Z,7.37
2019-05-10T20:19:00.389Z,8.50
2019-05-10T20:24:03.683Z,6.00
2019-05-10T20:29:06.979Z,4.23
2019-05-10T20:34:10.278Z,4.80
2019-05-10T20:39:13.570Z,4.57
2019-05-10T20:44:18.260Z,4.93
2019-05-10T20:49:21.698Z,5.80
2019-05-10T20:54:24.933Z,5.23
2019-05-10T20:59:28.271Z,6.33
2019-05-10T21:04:31.566Z,4.90
2019-05-10T21:09:34.861Z,5.07
2019-05-10T21:14:38.152Z,5.83
2019-05-10T21:19:41.471Z,7.87
2019-05-10T21:24:44.759Z,5.37
2019-05-10T21:29:48.090Z,5.27
2019-05-10T21:34:51.382Z,6.67
2019-05-10T21:39:54.650Z,4.47
2019-05-10T21:44:57.944Z,5.67
2019-05-10T21:50:01.262Z,3.07
2019-05-10T21:55:04.938Z,4.47
2019-05-10T22:00:08.918Z,9.23
2019-05-10T22:05:12.539Z,4.07
2019-05-10T22:10:16.053Z,4.53
2019-05-10T22:15:19.433Z,4.87
2019-05-10T22:20:22.784Z,3.53
2019-05-10T22:25:26.110Z,4.13
2019-05-10T22:30:29.446Z,4.17
2019-05-10T22:35:32.815Z,5.90
2019-05-10T22:40:36.156Z,5.27
2019-05-10T22:45:39.496Z,6.13
2019-05-10T22:50:42.891Z,4.13
2019-05-10T22:55:46.217Z,3.87
2019-05-10T23:00:49.539Z,6.17
2019-05-10T23:05:52.866Z,3.33
2019-05-10T23:10:56.195Z,3.10
2019-05-10T23:16:33.802Z,3.57
2019-05-10T23:21:37.062Z,4.60
2019-05-10T23:26:40.395Z,4.67
2019-05-10T23:31:43.738Z,3.73
2019-05-10T23:36:47.073Z,6.40
2019-05-10T23:41:50.403Z,5.87
2019-05-10T23:46:53.813Z,7.00
2019-05-10T23:51:57.195Z,4.43
2019-05-10T23:57:00.712Z,6.97
